Time;durP1;ratioP1;P1;durP2;ratioP2;P2;SDS_P1;SDS_P2;PMS_P1;PMS_P2;Temp;Humidity;BMP_temperature;BMP_pressure;BME280_temperature;BME280_humidity;BME280_pressure;Samples;Min_cycle;Max_cycle;Signal;HPM_P1;HPM_P2
2022/08/10 00:01:15;;;;;;;2.50;2.30;;;21.10;47.90;;;;;;5076049;28;20693;-83
2022/08/10 00:03:42;;;;;;;2.60;2.40;;;21.10;47.70;;;;;;5069928;28;21043;-81
2022/08/10 00:06:09;;;;;;;2.73;2.00;;;21.10;47.80;;;;;;5083409;28;20620;-83
2022/08/10 00:08:37;;;;;;;1.70;1.60;;;21.00;48.00;;;;;;5090662;28;20639;-83
2022/08/10 00:11:04;;;;;;;2.20;2.00;;;21.00;48.20;;;;;;5079289;28;20710;-82
2022/08/10 00:13:31;;;;;;;2.20;2.07;;;21.00;48.30;;;;;;5070802;28;21062;-82
2022/08/10 00:16:00;;;;;;;1.97;1.87;;;21.00;48.20;;;;;;5070402;28;20648;-83
2022/08/10 00:18:27;;;;;;;2.57;2.40;;;21.00;48.30;;;;;;5069446;28;20637;-83
2022/08/10 00:20:55;;;;;;;2.00;1.90;;;20.90;48.40;;;;;;5077489;28;20652;-82
2022/08/10 00:23:24;;;;;;;3.33;2.40;;;20.80;48.80;;;;;;5089524;28;20655;-82
2022/08/10 00:25:53;;;;;;;2.10;2.00;;;20.80;48.90;;;;;;5087302;28;20616;-83
2022/08/10 00:28:20;;;;;;;3.07;2.77;;;20.80;48.70;;;;;;5071045;28;20617;-82
2022/08/10 00:30:47;;;;;;;2.37;2.17;;;20.80;48.70;;;;;;5089179;28;21173;-82
2022/08/10 00:33:15;;;;;;;2.20;2.10;;;20.80;49.10;;;;;;5087907;28;21031;-82
2022/08/10 00:35:43;;;;;;;2.73;1.90;;;20.80;49.20;;;;;;5071203;28;20725;-83
2022/08/10 00:38:11;;;;;;;2.03;1.93;;;20.70;49.50;;;;;;5070116;28;20610;-83
2022/08/10 00:40:38;;;;;;;1.80;1.70;;;20.60;49.40;;;;;;5072138;28;20699;-82
2022/08/10 00:43:08;;;;;;;1.97;1.87;;;20.60;49.40;;;;;;5084622;28;20727;-82
2022/08/10 00:45:35;;;;;;;1.93;1.70;;;20.60;49.40;;;;;;5084325;28;20632;-82
2022/08/10 00:48:04;;;;;;;2.20;2.00;;;20.60;49.70;;;;;;5077142;28;20631;-82
2022/08/10 00:50:33;;;;;;;1.70;1.60;;;20.50;49.70;;;;;;5085833;28;20695;-83
2022/08/10 00:53:01;;;;;;;2.10;2.00;;;20.50;50.30;;;;;;5082897;28;20613;-82
2022/08/10 00:55:28;;;;;;;1.60;1.50;;;20.30;51.80;;;;;;5086327;28;21102;-82
2022/08/10 00:57:56;;;;;;;2.50;2.30;;;20.10;50.60;;;;;;5084112;28;20620;-83
2022/08/10 01:00:25;;;;;;;2.30;2.13;;;20.10;50.90;;;;;;5086543;28;20612;-83
2022/08/10 01:02:52;;;;;;;3.17;2.83;;;20.20;51.20;;;;;;5080081;28;20652;-82
2022/08/10 01:05:20;;;;;;;1.97;1.87;;;20.30;50.70;;;;;;5087366;28;20652;-83
2022/08/10 01:08:15;;;;;;;3.63;2.20;;;20.30;50.90;;;;;;5069513;28;20696;-82
2022/08/10 01:10:51;;;;;;;2.23;2.13;;;20.30;50.60;;;;;;5073187;28;20740;-82
2022/08/10 01:13:24;;;;;;;2.13;1.93;;;20.20;51.10;;;;;;5071943;28;20614;-82
2022/08/10 01:16:01;;;;;;;2.47;2.30;;;20.10;51.60;;;;;;5082305;28;20625;-82
2022/08/10 01:18:38;;;;;;;1.80;1.70;;;20.00;51.60;;;;;;5088313;28;20715;-82
2022/08/10 01:21:32;;;;;;;2.20;2.00;;;20.00;51.10;;;;;;5083853;28;21221;-82
2022/08/10 01:24:42;;;;;;;1.70;1.60;;;20.00;51.70;;;;;;5076529;28;20640;-81
2022/08/10 01:27:31;;;;;;;2.47;2.30;;;19.90;52.60;;;;;;5032847;28;20629;-81
2022/08/10 01:30:04;;;;;;;2.13;1.93;;;19.90;52.50;;;;;;5079130;28;21105;-82
2022/08/10 01:32:47;;;;;;;1.80;1.70;;;19.70;53.50;;;;;;5086910;28;20632;-83
2022/08/10 01:35:22;;;;;;;2.10;2.00;;;19.60;53.10;;;;;;5074206;28;20649;-82
2022/08/10 01:38:03;;;;;;;2.00;1.80;;;19.70;52.90;;;;;;5068673;28;20628;-82
2022/08/10 01:40:35;;;;;;;1.83;1.73;;;19.80;52.50;;;;;;5072486;28;20714;-81
2022/08/10 01:43:06;;;;;;;1.93;1.80;;;19.60;52.60;;;;;;5087435;28;20787;-83
2022/08/10 01:45:38;;;;;;;1.93;1.83;;;19.60;52.90;;;;;;5082418;28;21249;-83
2022/08/10 01:48:29;;;;;;;2.23;2.03;;;19.70;52.70;;;;;;5083225;28;21162;-81
2022/08/10 01:51:14;;;;;;;2.63;2.27;;;19.70;52.90;;;;;;5084347;28;20621;-81
2022/08/10 01:53:50;;;;;;;2.30;2.10;;;19.60;53.20;;;;;;5068783;28;20632;-83
2022/08/10 01:56:22;;;;;;;2.07;1.90;;;19.70;52.70;;;;;;5068494;28;21053;-82
2022/08/10 01:58:52;;;;;;;2.17;2.00;;;19.60;53.00;;;;;;5068717;28;20763;-82
2022/08/10 02:01:25;;;;;;;2.93;2.73;;;19.60;53.70;;;;;;5082583;28;21266;-82
2022/08/10 02:03:57;;;;;;;2.10;2.00;;;19.60;53.10;;;;;;5067723;28;20614;-81
2022/08/10 02:06:26;;;;;;;1.67;1.57;;;19.70;53.00;;;;;;5086900;28;20633;-83
2022/08/10 02:08:55;;;;;;;6.20;2.20;;;19.60;53.60;;;;;;5087967;28;21166;-83
2022/08/10 02:11:23;;;;;;;2.37;2.20;;;19.50;54.00;;;;;;5076799;28;21212;-81
2022/08/10 02:13:52;;;;;;;2.13;1.80;;;19.50;53.30;;;;;;5087971;28;20608;-79
2022/08/10 02:16:21;;;;;;;2.27;2.07;;;19.60;52.90;;;;;;5075183;28;20632;-82
2022/08/10 02:18:49;;;;;;;2.60;2.40;;;19.60;53.00;;;;;;5086604;28;20624;-81
2022/08/10 02:21:16;;;;;;;1.70;1.57;;;19.60;52.90;;;;;;5085559;28;21200;-82
2022/08/10 02:23:44;;;;;;;1.83;1.73;;;19.50;53.10;;;;;;5067268;28;20628;-83
2022/08/10 02:26:12;;;;;;;2.23;2.13;;;19.60;53.10;;;;;;5076340;28;20973;-83
2022/08/10 02:28:41;;;;;;;2.50;2.30;;;19.60;53.20;;;;;;5088190;28;20679;-82
2022/08/10 02:31:13;;;;;;;1.70;1.60;;;19.50;53.10;;;;;;5072202;28;20625;-81
2022/08/10 02:33:44;;;;;;;1.73;1.57;;;19.60;53.20;;;;;;5069682;28;20624;-82
2022/08/10 02:36:12;;;;;;;1.87;1.77;;;19.60;53.10;;;;;;5072806;28;21251;-81
2022/08/10 02:38:43;;;;;;;2.27;2.17;;;19.60;53.00;;;;;;5068190;28;21009;-82
2022/08/10 02:41:14;;;;;;;2.33;2.20;;;19.50;52.80;;;;;;5079072;28;20629;-82
2022/08/10 02:43:48;;;;;;;1.90;1.80;;;19.50;53.10;;;;;;5067315;28;20732;-81
2022/08/10 02:46:24;;;;;;;2.60;2.40;;;19.50;53.00;;;;;;5068929;28;20618;-83
2022/08/10 02:48:59;;;;;;;2.23;2.13;;;19.50;53.20;;;;;;5080529;28;20736;-83
2022/08/10 02:51:34;;;;;;;2.33;2.13;;;19.50;53.10;;;;;;5067784;28;20629;-82
2022/08/10 02:54:06;;;;;;;1.70;1.60;;;19.50;53.10;;;;;;5066678;28;20732;-81
2022/08/10 02:56:37;;;;;;;2.13;1.90;;;19.50;53.10;;;;;;5066967;28;20669;-82
2022/08/10 02:59:08;;;;;;;2.07;1.97;;;19.50;53.60;;;;;;5067583;28;20624;-83
2022/08/10 03:01:41;;;;;;;1.70;1.60;;;19.50;53.30;;;;;;5067041;28;21226;-83
2022/08/10 03:04:14;;;;;;;2.03;1.90;;;19.40;53.80;;;;;;5066942;28;21154;-82
2022/08/10 03:06:44;;;;;;;1.80;1.70;;;19.40;53.60;;;;;;5067180;28;20624;-83
2022/08/10 03:09:15;;;;;;;2.27;2.17;;;19.40;53.60;;;;;;5067174;28;20709;-82
2022/08/10 03:11:44;;;;;;;1.90;1.60;;;19.40;53.50;;;;;;5067295;28;20630;-82
2022/08/10 03:14:13;;;;;;;1.80;1.70;;;19.40;53.40;;;;;;5067215;28;20618;-81
2022/08/10 03:16:42;;;;;;;2.30;2.10;;;19.30;53.60;;;;;;5066935;28;20618;-82
2022/08/10 03:19:13;;;;;;;1.80;1.70;;;19.40;53.70;;;;;;5066292;28;20669;-83
2022/08/10 03:21:40;;;;;;;2.37;2.17;;;19.30;53.40;;;;;;5066788;28;20720;-83
2022/08/10 03:24:10;;;;;;;1.97;1.87;;;19.30;53.80;;;;;;5066275;28;20622;-84
2022/08/10 03:26:38;;;;;;;2.20;2.00;;;19.30;53.50;;;;;;5067400;28;20629;-83
2022/08/10 03:29:06;;;;;;;1.90;1.80;;;19.30;53.70;;;;;;5067033;28;20626;-83
2022/08/10 03:31:34;;;;;;;4.63;2.30;;;19.30;53.70;;;;;;5067256;28;20665;-84
2022/08/10 03:34:02;;;;;;;2.67;2.47;;;19.20;53.60;;;;;;5066490;28;21234;-84
2022/08/10 03:36:31;;;;;;;4.80;2.47;;;19.20;53.60;;;;;;5066448;28;20643;-83
2022/08/10 03:38:58;;;;;;;2.20;1.97;;;19.20;53.70;;;;;;5067876;28;20606;-81
2022/08/10 03:41:31;;;;;;;2.37;2.17;;;19.10;53.60;;;;;;5066977;28;21313;-83
2022/08/10 03:43:59;;;;;;;2.37;2.27;;;19.20;53.60;;;;;;5066305;28;20689;-81
2022/08/10 03:46:28;;;;;;;3.27;2.63;;;19.20;53.70;;;;;;5066711;28;20622;-82
2022/08/10 03:48:58;;;;;;;2.03;1.90;;;19.20;53.90;;;;;;5066620;28;20724;-83
2022/08/10 03:51:26;;;;;;;2.17;2.07;;;19.10;53.90;;;;;;5067132;28;21202;-82
2022/08/10 03:53:55;;;;;;;2.17;1.97;;;19.00;54.10;;;;;;5067071;28;20636;-82
2022/08/10 03:56:23;;;;;;;2.00;1.90;;;19.00;54.00;;;;;;5067036;28;20679;-82
2022/08/10 03:58:50;;;;;;;2.47;2.30;;;19.00;53.80;;;;;;5077222;28;20673;-82
2022/08/10 04:01:18;;;;;;;1.97;1.87;;;19.00;54.10;;;;;;5075840;28;20628;-82
2022/08/10 04:03:45;;;;;;;1.77;1.67;;;19.00;53.80;;;;;;5075257;28;20676;-84
2022/08/10 04:06:13;;;;;;;2.37;2.27;;;19.00;53.70;;;;;;5090412;28;20625;-83
2022/08/10 04:08:41;;;;;;;2.27;2.13;;;19.00;53.60;;;;;;5082938;28;21205;-82
2022/08/10 04:11:10;;;;;;;1.67;1.57;;;19.00;53.70;;;;;;5070740;28;20621;-83
2022/08/10 04:13:37;;;;;;;2.17;2.07;;;19.00;53.90;;;;;;5070635;28;20648;-83
2022/08/10 04:16:05;;;;;;;2.43;2.23;;;19.00;53.70;;;;;;5070978;28;20621;-82
2022/08/10 04:18:32;;;;;;;4.30;4.00;;;19.00;53.70;;;;;;5086170;28;20716;-82
2022/08/10 04:21:04;;;;;;;2.73;2.53;;;19.00;53.90;;;;;;5074949;28;20757;-82
2022/08/10 04:23:34;;;;;;;2.03;1.93;;;19.00;53.80;;;;;;5069803;28;20746;-81
2022/08/10 04:26:01;;;;;;;1.80;1.70;;;19.00;53.60;;;;;;5081820;28;20632;-82
2022/08/10 04:28:30;;;;;;;1.90;1.80;;;19.00;53.70;;;;;;5079055;28;20620;-84
2022/08/10 04:30:58;;;;;;;1.83;1.73;;;19.00;53.90;;;;;;5072799;28;21294;-82
2022/08/10 04:33:28;;;;;;;2.80;2.30;;;18.90;54.90;;;;;;5085390;28;20645;-82
2022/08/10 04:35:56;;;;;;;2.00;1.90;;;18.70;54.70;;;;;;5080844;28;20645;-83
2022/08/10 04:38:26;;;;;;;2.30;2.20;;;18.70;55.10;;;;;;5074197;28;20621;-83
2022/08/10 04:40:53;;;;;;;3.13;2.80;;;18.60;55.40;;;;;;5083395;28;20661;-83
2022/08/10 04:43:20;;;;;;;2.20;2.10;;;18.60;55.10;;;;;;5072285;28;21337;-81
2022/08/10 04:45:48;;;;;;;2.23;2.07;;;18.60;55.50;;;;;;5087469;28;21151;-82
2022/08/10 04:48:15;;;;;;;2.27;2.07;;;18.60;55.20;;;;;;5069983;28;20863;-82
2022/08/10 04:50:42;;;;;;;3.47;2.97;;;18.60;55.70;;;;;;5079089;28;20628;-82
2022/08/10 04:53:09;;;;;;;3.63;2.67;;;18.70;55.00;;;;;;5089772;28;20656;-81
2022/08/10 04:55:36;;;;;;;3.40;3.10;;;18.70;55.40;;;;;;5080269;28;20673;-82
2022/08/10 04:58:03;;;;;;;3.57;2.93;;;18.70;55.90;;;;;;5072279;28;20698;-82
2022/08/10 05:00:30;;;;;;;4.33;3.40;;;18.80;55.50;;;;;;5088684;28;20624;-83
2022/08/10 05:02:58;;;;;;;2.97;2.73;;;18.80;55.80;;;;;;5070043;28;21219;-83
2022/08/10 05:05:25;;;;;;;3.03;2.83;;;18.90;55.60;;;;;;5075791;28;20645;-82
2022/08/10 05:07:52;;;;;;;4.77;3.70;;;19.00;54.80;;;;;;5089662;28;20663;-82
2022/08/10 05:10:19;;;;;;;3.00;2.80;;;18.90;55.50;;;;;;5071126;28;21310;-82
2022/08/10 05:12:46;;;;;;;6.13;3.30;;;18.90;55.60;;;;;;5088357;28;20640;-83
2022/08/10 05:15:16;;;;;;;4.67;2.53;;;18.90;56.50;;;;;;5087408;28;20621;-83
2022/08/10 05:17:44;;;;;;;4.87;3.63;;;18.80;56.30;;;;;;5087157;28;20632;-83
2022/08/10 05:20:13;;;;;;;3.73;3.30;;;18.80;56.50;;;;;;5083386;28;20718;-82
2022/08/10 05:22:42;;;;;;;3.23;2.93;;;18.90;56.30;;;;;;5072319;28;20676;-83
2022/08/10 05:25:12;;;;;;;4.00;2.20;;;18.90;56.60;;;;;;5068862;28;20646;-82
2022/08/10 05:27:40;;;;;;;3.10;2.90;;;18.90;56.60;;;;;;5078295;28;21198;-81
2022/08/10 05:30:09;;;;;;;2.83;2.63;;;18.90;57.10;;;;;;5083078;28;20714;-83
2022/08/10 05:32:36;;;;;;;2.40;2.20;;;19.00;56.90;;;;;;5082106;28;20659;-84
2022/08/10 05:35:04;;;;;;;2.60;2.40;;;19.20;57.20;;;;;;5077895;28;20661;-84
2022/08/10 05:37:33;;;;;;;2.27;2.17;;;19.40;56.30;;;;;;5078930;28;20709;-82
2022/08/10 05:40:02;;;;;;;2.20;1.80;;;19.50;56.20;;;;;;5085638;28;21082;-82
2022/08/10 05:42:29;;;;;;;2.70;2.27;;;19.50;56.10;;;;;;5076076;28;20631;-83
2022/08/10 05:44:56;;;;;;;2.47;2.37;;;19.50;56.60;;;;;;5083393;28;20617;-82
2022/08/10 05:47:24;;;;;;;2.27;2.10;;;19.40;56.80;;;;;;5088873;28;21224;-83
2022/08/10 05:49:52;;;;;;;2.10;2.00;;;19.50;55.40;;;;;;5086399;28;21020;-80
2022/08/10 05:52:20;;;;;;;3.30;2.90;;;19.60;55.70;;;;;;5080543;28;21176;-83
2022/08/10 05:54:49;;;;;;;5.80;2.53;;;19.90;54.50;;;;;;5069990;28;20698;-82
2022/08/10 05:57:21;;;;;;;2.23;2.13;;;20.00;53.30;;;;;;5088675;28;21148;-82
2022/08/10 06:00:00;;;;;;;2.20;2.00;;;20.20;53.90;;;;;;5086707;28;20625;-83
2022/08/10 06:02:30;;;;;;;3.03;2.53;;;20.20;53.30;;;;;;5076043;28;20894;-83
2022/08/10 06:05:00;;;;;;;2.40;2.20;;;20.30;52.40;;;;;;5085393;28;20653;-81
2022/08/10 06:07:28;;;;;;;1.47;1.40;;;20.30;53.00;;;;;;5068243;28;20645;-82
2022/08/10 06:09:58;;;;;;;2.37;2.07;;;20.50;53.40;;;;;;5070760;28;20650;-84
2022/08/10 06:12:27;;;;;;;2.13;1.90;;;20.70;53.20;;;;;;5071681;28;21005;-84
2022/08/10 06:15:02;;;;;;;1.83;1.73;;;20.70;52.90;;;;;;5072853;28;20729;-84
2022/08/10 06:17:31;;;;;;;1.70;1.60;;;20.90;52.40;;;;;;5086144;28;20774;-82
2022/08/10 06:19:59;;;;;;;2.00;1.90;;;21.00;51.90;;;;;;5081455;28;20652;-81
2022/08/10 06:22:26;;;;;;;1.57;1.47;;;21.00;52.20;;;;;;5085403;28;20712;-81
2022/08/10 06:24:57;;;;;;;1.93;1.83;;;21.00;51.30;;;;;;5085444;28;20966;-81
2022/08/10 06:27:24;;;;;;;1.90;1.80;;;21.20;51.20;;;;;;5068727;28;20625;-82
2022/08/10 06:29:53;;;;;;;3.63;2.03;;;21.10;51.60;;;;;;5067989;28;20625;-84
2022/08/10 06:32:24;;;;;;;1.93;1.83;;;21.10;51.60;;;;;;5080672;28;20686;-83
2022/08/10 06:34:54;;;;;;;2.37;2.17;;;21.10;51.30;;;;;;5077488;28;21150;-83
2022/08/10 06:37:26;;;;;;;2.30;2.10;;;21.20;52.00;;;;;;5067302;28;20717;-81
2022/08/10 06:39:53;;;;;;;1.87;1.77;;;21.40;51.10;;;;;;5066548;28;20642;-81
2022/08/10 06:42:27;;;;;;;2.13;2.03;;;21.40;50.90;;;;;;5067075;28;20986;-83
2022/08/10 06:44:59;;;;;;;2.10;1.70;;;21.40;50.60;;;;;;5067302;28;20707;-83
2022/08/10 06:47:30;;;;;;;1.60;1.50;;;21.50;50.80;;;;;;5066931;28;20664;-83
2022/08/10 06:50:02;;;;;;;1.57;1.47;;;21.50;50.20;;;;;;5066913;28;21005;-80
2022/08/10 06:52:32;;;;;;;2.03;1.50;;;21.70;50.20;;;;;;5066535;28;20722;-83
2022/08/10 06:55:00;;;;;;;3.00;2.10;;;21.70;50.30;;;;;;5070516;28;20625;-84
2022/08/10 06:57:32;;;;;;;2.67;1.87;;;21.80;49.90;;;;;;5087595;28;20968;-83
2022/08/10 07:00:02;;;;;;;2.07;1.93;;;21.80;49.80;;;;;;5074476;28;20631;-82
2022/08/10 07:02:36;;;;;;;1.90;1.80;;;21.80;49.90;;;;;;5070552;28;20633;-84
2022/08/10 07:05:06;;;;;;;2.70;2.50;;;21.90;50.00;;;;;;5066268;28;20664;-83
2022/08/10 07:07:38;;;;;;;2.33;2.10;;;22.10;50.70;;;;;;5066656;28;20653;-82
2022/08/10 07:10:07;;;;;;;1.80;1.70;;;22.20;49.80;;;;;;5073610;28;21050;-82
2022/08/10 07:12:36;;;;;;;2.57;2.37;;;22.30;50.00;;;;;;5077478;28;20716;-83
2022/08/10 07:15:05;;;;;;;2.10;2.00;;;22.40;50.10;;;;;;5084136;28;20747;-83
2022/08/10 07:17:32;;;;;;;1.97;1.87;;;22.40;50.00;;;;;;5070794;28;20629;-83
2022/08/10 07:20:00;;;;;;;2.10;1.90;;;22.50;50.10;;;;;;5066657;28;20720;-83
2022/08/10 07:22:29;;;;;;;1.60;1.50;;;22.70;49.40;;;;;;5080263;28;20819;-84
2022/08/10 07:24:58;;;;;;;1.90;1.80;;;22.60;48.90;;;;;;5076425;28;20729;-84
2022/08/10 07:27:26;;;;;;;2.07;1.87;;;22.60;49.50;;;;;;5086485;28;21031;-82
2022/08/10 07:29:56;;;;;;;2.77;1.63;;;22.60;49.10;;;;;;5067016;28;20648;-85
2022/08/10 07:32:24;;;;;;;2.23;2.07;;;22.80;49.00;;;;;;5067027;28;21217;-83
2022/08/10 07:34:53;;;;;;;3.00;1.90;;;22.80;49.50;;;;;;5074697;28;20617;-83
2022/08/10 07:37:24;;;;;;;1.67;1.57;;;22.90;49.60;;;;;;5077159;28;20621;-85
2022/08/10 07:39:53;;;;;;;1.90;1.80;;;23.00;49.10;;;;;;5070554;28;20666;-84
2022/08/10 07:42:26;;;;;;;2.17;1.97;;;23.10;49.10;;;;;;5073929;28;20645;-82
2022/08/10 07:44:55;;;;;;;1.80;1.70;;;23.30;48.50;;;;;;5082770;28;20664;-83
2022/08/10 07:47:28;;;;;;;1.70;1.60;;;23.40;48.40;;;;;;5089176;28;21239;-82
2022/08/10 07:49:56;;;;;;;1.60;1.50;;;23.40;48.10;;;;;;5070993;28;20938;-85
2022/08/10 07:52:24;;;;;;;1.87;1.77;;;23.40;48.00;;;;;;5074838;28;20617;-84
2022/08/10 07:54:53;;;;;;;2.47;2.27;;;23.50;48.30;;;;;;5072918;28;20732;-82
2022/08/10 07:57:25;;;;;;;2.40;2.17;;;23.50;47.80;;;;;;5091204;28;20617;-84
2022/08/10 07:59:58;;;;;;;3.77;1.70;;;23.50;47.90;;;;;;5076999;28;20621;-84
2022/08/10 08:02:29;;;;;;;1.57;1.47;;;23.70;48.30;;;;;;5071800;28;20622;-83
2022/08/10 08:04:59;;;;;;;1.80;1.70;;;23.80;48.00;;;;;;5070812;28;20692;-84
2022/08/10 08:07:27;;;;;;;1.63;1.53;;;23.90;47.70;;;;;;5091050;28;21335;-83
2022/08/10 08:09:56;;;;;;;2.03;1.80;;;23.90;47.20;;;;;;5079615;28;20725;-83
2022/08/10 08:12:24;;;;;;;2.10;2.00;;;24.10;47.70;;;;;;5080555;28;21210;-84
2022/08/10 08:14:52;;;;;;;1.70;1.60;;;24.20;48.10;;;;;;5090236;28;20685;-85
2022/08/10 08:17:23;;;;;;;2.07;1.97;;;24.40;47.70;;;;;;5070647;28;20657;-84
2022/08/10 08:19:52;;;;;;;1.90;1.80;;;24.50;47.80;;;;;;5080123;28;20623;-83
2022/08/10 08:22:20;;;;;;;1.80;1.70;;;24.60;48.30;;;;;;5089062;28;20735;-83
2022/08/10 08:24:47;;;;;;;1.80;1.70;;;24.70;47.30;;;;;;5070251;28;20653;-84
2022/08/10 08:27:18;;;;;;;3.60;1.90;;;24.70;47.40;;;;;;5089024;28;20624;-84
2022/08/10 08:29:48;;;;;;;1.80;1.60;;;24.80;46.20;;;;;;5081242;28;20728;-86
2022/08/10 08:32:17;;;;;;;3.20;1.63;;;24.90;46.60;;;;;;5069668;28;20609;-86
2022/08/10 08:34:46;;;;;;;1.10;1.10;;;24.90;46.30;;;;;;5078562;28;20671;-85
2022/08/10 08:37:16;;;;;;;2.50;2.30;;;25.10;46.00;;;;;;5079679;28;20639;-84
2022/08/10 08:39:44;;;;;;;1.53;1.43;;;25.00;45.90;;;;;;5076456;28;20629;-84
2022/08/10 08:42:30;;;;;;;1.60;1.50;;;25.00;46.80;;;;;;5084784;28;20632;-86
2022/08/10 08:45:08;;;;;;;1.87;1.67;;;25.20;47.60;;;;;;5076806;28;20768;-83
2022/08/10 08:47:56;;;;;;;1.43;1.33;;;25.20;45.90;;;;;;5082620;28;21063;-84
2022/08/10 08:50:39;;;;;;;1.43;1.33;;;25.30;44.10;;;;;;5084147;28;20713;-84
2022/08/10 08:53:24;;;;;;;3.20;1.87;;;25.50;44.60;;;;;;5068884;28;20629;-85
2022/08/10 08:55:57;;;;;;;1.47;1.40;;;25.50;44.70;;;;;;5081462;28;20637;-84
2022/08/10 08:58:38;;;;;;;1.87;1.77;;;25.50;44.10;;;;;;5069876;28;20617;-84
2022/08/10 09:01:15;;;;;;;1.97;1.67;;;25.60;43.10;;;;;;5070479;28;20621;-85
2022/08/10 09:03:58;;;;;;;2.00;1.90;;;25.70;43.50;;;;;;5069132;28;20669;-82
2022/08/10 09:06:52;;;;;;;2.30;2.10;;;25.70;43.30;;;;;;5070035;28;20618;-84
2022/08/10 09:09:51;;;;;;;1.93;1.80;;;25.80;43.60;;;;;;5071588;28;20675;-86
2022/08/10 09:12:33;;;;;;;1.70;1.60;;;25.70;42.60;;;;;;5078172;28;20695;-84
2022/08/10 09:15:04;;;;;;;1.83;1.73;;;25.70;42.60;;;;;;5069856;28;20682;-83
2022/08/10 09:17:40;;;;;;;2.27;2.07;;;25.70;43.20;;;;;;5069325;28;21253;-82
2022/08/10 09:20:10;;;;;;;9.40;1.87;;;25.80;43.30;;;;;;5075114;28;21256;-85
2022/08/10 09:22:45;;;;;;;1.80;1.70;;;25.90;42.80;;;;;;5076299;28;20675;-82
2022/08/10 09:25:17;;;;;;;2.23;1.90;;;26.00;43.80;;;;;;5069618;28;21230;-82
2022/08/10 09:27:46;;;;;;;1.70;1.60;;;26.20;43.30;;;;;;5069218;28;20971;-84
2022/08/10 09:30:16;;;;;;;2.17;1.67;;;26.40;42.40;;;;;;5075871;28;20652;-83
2022/08/10 09:32:47;;;;;;;1.73;1.63;;;26.50;42.30;;;;;;5070399;28;20621;-84
2022/08/10 09:35:23;;;;;;;2.73;1.33;;;26.50;42.00;;;;;;5084520;28;20635;-84
2022/08/10 09:38:02;;;;;;;1.43;1.37;;;26.50;42.00;;;;;;5088238;28;20674;-83
2022/08/10 09:40:42;;;;;;;1.37;1.27;;;26.60;41.70;;;;;;5082374;28;20659;-84
2022/08/10 09:43:19;;;;;;;1.30;1.20;;;26.80;40.90;;;;;;5088560;28;20621;-85
2022/08/10 09:45:53;;;;;;;2.03;1.50;;;26.80;40.60;;;;;;5087661;28;20659;-83
2022/08/10 09:48:30;;;;;;;1.67;1.40;;;26.80;40.70;;;;;;5089418;28;20609;-83
2022/08/10 09:51:07;;;;;;;1.90;1.80;;;26.80;40.70;;;;;;5077124;28;20629;-84
2022/08/10 09:53:46;;;;;;;2.13;1.40;;;26.90;40.20;;;;;;5067931;28;20625;-83
2022/08/10 09:56:24;;;;;;;1.90;1.80;;;27.00;40.70;;;;;;5081850;28;20732;-84
2022/08/10 09:59:04;;;;;;;1.67;1.57;;;27.10;40.20;;;;;;5088738;28;20989;-84
2022/08/10 10:01:38;;;;;;;1.63;1.53;;;27.20;40.90;;;;;;5073087;28;20720;-85
2022/08/10 10:04:11;;;;;;;1.67;1.57;;;27.10;39.80;;;;;;5067926;28;20690;-86
2022/08/10 10:06:43;;;;;;;1.83;1.60;;;27.30;40.60;;;;;;5083507;28;21226;-83
2022/08/10 10:09:18;;;;;;;1.80;1.70;;;27.30;40.00;;;;;;5074407;28;20617;-85
2022/08/10 10:11:57;;;;;;;1.33;1.27;;;27.30;39.50;;;;;;5068198;28;20706;-84
2022/08/10 10:14:34;;;;;;;1.60;1.50;;;27.20;39.90;;;;;;5072360;28;20625;-84
2022/08/10 10:17:07;;;;;;;1.17;1.00;;;27.50;38.80;;;;;;5075135;28;20622;-83
2022/08/10 10:19:54;;;;;;;1.37;1.27;;;27.50;39.10;;;;;;5071486;28;20614;-84
2022/08/10 10:22:49;;;;;;;1.40;1.30;;;27.80;39.20;;;;;;5068835;28;20653;-84
2022/08/10 10:25:27;;;;;;;1.33;1.23;;;27.90;38.80;;;;;;5074638;28;20670;-83
2022/08/10 10:28:09;;;;;;;1.50;1.40;;;27.90;39.80;;;;;;5088192;28;20612;-83
2022/08/10 10:30:44;;;;;;;1.33;1.20;;;27.90;39.50;;;;;;5079619;28;20630;-84
2022/08/10 10:33:18;;;;;;;2.00;1.83;;;28.00;38.80;;;;;;5067621;28;20706;-85
2022/08/10 10:35:51;;;;;;;1.80;1.70;;;28.00;39.00;;;;;;5087267;28;20629;-87
2022/08/10 10:38:23;;;;;;;1.30;1.20;;;28.30;38.10;;;;;;5088163;28;20609;-86
2022/08/10 10:41:00;;;;;;;2.30;1.50;;;28.30;38.30;;;;;;5082434;28;20624;-83
2022/08/10 10:43:41;;;;;;;1.40;1.30;;;28.40;38.10;;;;;;5067116;28;20649;-83
2022/08/10 10:46:22;;;;;;;1.10;1.10;;;28.30;37.50;;;;;;5079165;28;20757;-84
2022/08/10 10:49:00;;;;;;;1.67;1.57;;;28.30;39.90;;;;;;5088207;28;20632;-83
2022/08/10 10:51:32;;;;;;;2.50;2.40;;;28.40;38.60;;;;;;5074544;28;21040;-84
2022/08/10 10:54:07;;;;;;;1.50;1.40;;;28.50;37.70;;;;;;5070016;28;20620;-86
2022/08/10 10:56:54;;;;;;;2.57;1.93;;;28.60;38.10;;;;;;5067736;28;20652;-83
2022/08/10 10:59:34;;;;;;;1.57;1.47;;;28.70;38.30;;;;;;5067805;28;20623;-84
2022/08/10 11:02:15;;;;;;;2.47;1.70;;;28.80;37.80;;;;;;5067820;28;20834;-84
2022/08/10 11:04:49;;;;;;;1.73;1.63;;;28.80;38.00;;;;;;5070903;28;20699;-84
2022/08/10 11:07:20;;;;;;;1.63;1.53;;;28.80;37.60;;;;;;5087997;28;20638;-85
2022/08/10 11:09:52;;;;;;;1.10;1.10;;;29.00;36.90;;;;;;5072130;28;20654;-85
2022/08/10 11:12:28;;;;;;;1.53;1.43;;;29.10;37.40;;;;;;5073094;28;20726;-87
2022/08/10 11:15:04;;;;;;;1.40;1.30;;;29.20;36.70;;;;;;5070136;28;20618;-84
2022/08/10 11:17:38;;;;;;;1.40;1.30;;;29.40;36.80;;;;;;5070817;28;20706;-85
2022/08/10 11:20:12;;;;;;;1.50;1.40;;;29.60;36.30;;;;;;5071164;28;20641;-85
2022/08/10 11:22:51;;;;;;;1.70;1.60;;;29.70;35.90;;;;;;5070565;28;20643;-87
2022/08/10 11:25:30;;;;;;;1.50;1.40;;;29.70;36.00;;;;;;5071021;28;20653;-84
2022/08/10 11:28:08;;;;;;;1.50;1.40;;;29.80;35.80;;;;;;5070936;28;20625;-82
2022/08/10 11:30:46;;;;;;;1.20;1.20;;;30.00;34.60;;;;;;5075547;28;20639;-84
2022/08/10 11:33:17;;;;;;;1.40;1.30;;;30.10;34.30;;;;;;5086355;28;20617;-83
2022/08/10 11:35:48;;;;;;;1.60;1.50;;;30.00;34.70;;;;;;5090499;28;20631;-82
2022/08/10 11:38:25;;;;;;;1.33;1.23;;;30.40;34.70;;;;;;5090113;28;20621;-86
2022/08/10 11:41:02;;;;;;;1.10;1.10;;;30.60;37.20;;;;;;5087025;28;20670;-86
2022/08/10 11:43:41;;;;;;;1.70;1.60;;;31.00;35.00;;;;;;5084282;28;20620;-85
2022/08/10 11:46:27;;;;;;;1.00;1.00;;;31.50;34.80;;;;;;5089344;28;20867;-85
2022/08/10 11:49:03;;;;;;;1.43;1.33;;;31.60;34.40;;;;;;5071872;28;20716;-84
2022/08/10 11:51:40;;;;;;;1.60;1.50;;;31.80;33.50;;;;;;5072190;28;20629;-84
2022/08/10 11:54:14;;;;;;;1.70;1.60;;;31.70;33.10;;;;;;5073081;28;20624;-82
2022/08/10 11:56:47;;;;;;;1.40;1.30;;;31.90;33.60;;;;;;5073674;28;20661;-81
2022/08/10 12:02:04;;;;;;;1.13;1.03;;;33.30;33.00;;;;;;5075382;28;20650;-86
2022/08/10 12:04:32;;;;;;;1.57;1.47;;;34.00;32.20;;;;;;5085075;28;20632;-85
2022/08/10 12:07:03;;;;;;;1.30;1.20;;;34.70;31.60;;;;;;5071841;28;20621;-86
2022/08/10 12:09:32;;;;;;;1.23;1.17;;;35.60;30.30;;;;;;5083602;28;21187;-84
2022/08/10 12:12:00;;;;;;;2.00;1.80;;;36.40;30.00;;;;;;5088309;28;21256;-85
2022/08/10 12:14:33;;;;;;;1.70;1.43;;;36.90;28.80;;;;;;5080229;28;21495;-83
2022/08/10 12:17:03;;;;;;;1.50;1.40;;;37.20;28.60;;;;;;5089671;28;20676;-86
2022/08/10 12:19:37;;;;;;;1.43;1.37;;;38.00;28.80;;;;;;5081363;28;21179;-83
2022/08/10 12:22:07;;;;;;;1.43;1.37;;;38.10;28.50;;;;;;5078190;28;20727;-86
2022/08/10 12:24:37;;;;;;;1.47;1.37;;;38.40;28.30;;;;;;5073219;28;20662;-84
2022/08/10 12:27:10;;;;;;;2.10;2.00;;;38.40;28.20;;;;;;5084566;28;20608;-85
2022/08/10 12:29:50;;;;;;;1.40;1.30;;;38.30;28.10;;;;;;5085491;28;20225;-85
2022/08/10 12:32:26;;;;;;;1.20;1.20;;;38.60;28.30;;;;;;5079635;28;20218;-84
2022/08/10 12:35:00;;;;;;;1.73;1.63;;;39.10;27.10;;;;;;5082176;28;20272;-85
2022/08/10 12:37:35;;;;;;;1.80;1.70;;;39.40;27.20;;;;;;5089836;28;20561;-83
2022/08/10 12:40:08;;;;;;;1.23;1.23;;;39.30;27.80;;;;;;5074186;28;20657;-83
2022/08/10 12:42:42;;;;;;;1.58;1.48;;;39.40;27.60;;;;;;5080038;28;20725;-83
2022/08/10 12:45:18;;;;;;;1.38;1.30;;;39.80;26.90;;;;;;5081860;28;20226;-86
2022/08/10 12:47:53;;;;;;;1.23;1.23;;;40.00;26.90;;;;;;5090137;28;20236;-85
2022/08/10 12:50:24;;;;;;;1.65;1.55;;;39.50;27.00;;;;;;5088523;28;21089;-87
2022/08/10 12:52:57;;;;;;;1.70;1.60;;;39.60;27.40;;;;;;5074873;28;20189;-84
2022/08/10 12:55:26;;;;;;;1.42;1.42;;;39.70;27.20;;;;;;5078501;28;20219;-84
2022/08/10 12:57:56;;;;;;;1.92;1.83;;;40.00;26.80;;;;;;5070281;28;20237;-86
2022/08/10 13:00:32;;;;;;;1.75;1.50;;;40.30;26.30;;;;;;5071449;28;20233;-84
2022/08/10 13:03:00;;;;;;;1.38;1.38;;;40.00;26.80;;;;;;5087258;28;20567;-84
2022/08/10 13:05:28;;;;;;;1.67;1.58;;;39.70;27.00;;;;;;5083091;28;20219;-84
2022/08/10 13:10:45;;;;;;;1.10;1.10;;;40.10;26.50;;;;;;5068922;28;20423;-84
2022/08/10 13:13:14;;;;;;;1.27;1.25;;;40.40;26.70;;;;;;5072469;28;20204;-85
2022/08/10 13:15:46;;;;;;;1.90;1.80;;;40.50;26.20;;;;;;5087639;28;20184;-87
2022/08/10 13:18:17;;;;;;;1.80;1.70;;;40.40;26.50;;;;;;5078323;28;20203;-85